Time;durP1;ratioP1;P1;durP2;ratioP2;P2;SDS_P1;SDS_P2;PMS_P1;PMS_P2;Temp;Humidity;BMP_temperature;BMP_pressure;BME280_temperature;BME280_humidity;BME280_pressure;Samples;Min_cycle;Max_cycle;Signal;HPM_P1;HPM_P2
2021/09/02 00:00:54;;;;;;;15.48;13.27;;;;;;;30.13;62.87;100728.88;5073881;27;69346;-42
2021/09/02 00:03:26;;;;;;;18.60;12.45;;;;;;;30.16;63.52;100733.84;5074991;27;65554;-41
2021/09/02 00:05:56;;;;;;;15.00;11.70;;;;;;;30.17;63.36;100735.53;5080983;27;70285;-41
2021/09/02 00:08:27;;;;;;;15.85;12.27;;;;;;;30.19;63.78;100748.81;5073262;27;66255;-41
2021/09/02 00:10:58;;;;;;;13.98;11.85;;;;;;;30.20;64.18;100751.31;5077145;27;69520;-41
2021/09/02 00:13:29;;;;;;;15.65;11.73;;;;;;;30.21;64.25;100755.66;5077269;27;66288;-41
2021/09/02 00:16:01;;;;;;;12.48;11.20;;;;;;;30.28;64.46;100770.00;5075380;27;69598;-41
2021/09/02 00:18:32;;;;;;;17.60;11.73;;;;;;;30.35;64.02;100779.97;5097217;27;66344;-40
2021/09/02 00:21:03;;;;;;;14.70;11.73;;;;;;;30.35;64.58;100785.38;5078209;27;69890;-40
2021/09/02 00:23:35;;;;;;;14.00;11.20;;;;;;;30.34;65.35;100792.66;5063396;27;66332;-41
2021/09/02 00:26:11;;;;;;;15.80;10.55;;;;;;;30.38;64.61;100790.34;5080173;27;70008;-41
2021/09/02 00:28:42;;;;;;;10.60;9.55;;;;;;;30.37;65.11;100792.22;5073877;27;65435;-40
2021/09/02 00:31:13;;;;;;;9.43;8.65;;;;;;;30.36;65.64;100806.78;5076453;27;70395;-40
2021/09/02 00:33:44;;;;;;;10.00;9.10;;;;;;;30.39;65.61;100802.81;5080598;27;65024;-41
2021/09/02 00:36:15;;;;;;;12.30;7.93;;;;;;;30.36;65.60;100798.66;5066440;27;68955;-41
2021/09/02 00:38:46;;;;;;;11.10;6.57;;;;;;;30.42;64.96;100807.78;5075245;27;65817;-40
2021/09/02 00:41:17;;;;;;;7.28;6.63;;;;;;;30.42;65.32;100816.75;5069040;27;70773;-41
2021/09/02 00:43:48;;;;;;;7.68;6.93;;;;;;;30.46;64.98;100825.25;5079743;27;66424;-41
2021/09/02 00:46:19;;;;;;;7.18;6.45;;;;;;;30.42;64.92;100815.91;5076085;27;70813;-40
2021/09/02 00:48:52;;;;;;;6.38;5.95;;;;;;;30.47;65.46;100830.44;5076107;27;66621;-40
2021/09/02 00:51:23;;;;;;;6.47;5.97;;;;;;;30.46;65.32;100825.25;5069195;27;69891;-41
2021/09/02 00:53:56;;;;;;;8.35;4.97;;;;;;;30.48;65.20;100829.41;5079163;27;66269;-41
2021/09/02 00:56:27;;;;;;;5.70;5.28;;;;;;;30.50;65.29;100830.00;5068976;27;69009;-41
2021/09/02 00:58:58;;;;;;;5.88;5.38;;;;;;;30.50;64.71;100831.88;5069207;27;66153;-41
2021/09/02 01:01:29;;;;;;;5.57;5.15;;;;;;;30.54;65.37;100838.53;5072617;27;70234;-42
2021/09/02 01:04:03;;;;;;;4.82;4.43;;;;;;;30.45;65.19;100818.16;5074738;27;65379;-41
2021/09/02 01:06:35;;;;;;;4.68;4.28;;;;;;;30.56;64.84;100841.81;5081109;27;70689;-40
2021/09/02 01:09:06;;;;;;;5.03;4.40;;;;;;;30.56;65.60;100841.00;5055768;28;65213;-42
2021/09/02 01:11:50;;;;;;;5.95;3.80;;;;;;;30.59;65.34;100841.41;5074245;27;70134;-42
2021/09/02 01:14:21;;;;;;;5.50;4.53;;;;;;;30.52;65.79;100835.22;5065558;27;66311;-41
2021/09/02 01:16:56;;;;;;;5.30;4.80;;;;;;;30.26;66.69;100791.03;5069099;27;69973;-42
2021/09/02 01:19:27;;;;;;;9.90;5.72;;;;;;;30.62;66.13;100851.81;5066001;27;66223;-41
2021/09/02 01:21:59;;;;;;;7.47;5.38;;;;;;;30.69;66.48;100849.84;5076727;27;70238;-42
2021/09/02 01:24:30;;;;;;;9.02;5.03;;;;;;;30.70;66.60;100856.97;5066515;27;67003;-43
2021/09/02 01:27:00;;;;;;;6.32;5.15;;;;;;;30.70;66.54;100859.66;5067735;27;69755;-43
2021/09/02 01:29:32;;;;;;;9.77;5.50;;;;;;;30.67;66.38;100848.41;5066540;27;66051;-42
2021/09/02 01:32:03;;;;;;;12.98;5.43;;;;;;;30.76;66.28;100860.66;5064070;27;71158;-42
2021/09/02 01:34:34;;;;;;;6.18;5.78;;;;;;;30.77;66.01;100867.72;5079641;27;66029;-41
2021/09/02 01:37:04;;;;;;;5.78;5.38;;;;;;;30.76;66.01;100870.63;5065919;27;70071;-42
2021/09/02 01:39:35;;;;;;;6.35;5.85;;;;;;;30.78;66.18;100865.84;5059274;27;66114;-42
2021/09/02 01:42:11;;;;;;;5.95;5.65;;;;;;;30.79;66.28;100862.09;5064939;27;69133;-42
2021/09/02 01:44:46;;;;;;;6.85;6.03;;;;;;;30.76;66.13;100857.94;5065120;27;43239;-42
2021/09/02 01:47:25;;;;;;;6.60;6.10;;;;;;;30.43;65.99;100814.88;5062727;27;69223;-42
2021/09/02 01:50:16;;;;;;;5.15;4.75;;;;;;;30.46;66.33;100814.44;5063647;27;65513;-42
2021/09/02 01:52:50;;;;;;;5.20;4.90;;;;;;;30.85;66.23;100883.75;5069353;27;70424;-41
2021/09/02 01:55:22;;;;;;;5.25;4.85;;;;;;;30.88;65.97;100888.72;5063569;27;66850;-42
2021/09/02 01:57:54;;;;;;;5.32;4.93;;;;;;;30.85;66.33;100883.75;5062356;27;70166;-43
2021/09/02 02:00:25;;;;;;;6.10;5.60;;;;;;;30.78;65.98;100871.25;5075705;27;66125;-43
2021/09/02 02:02:56;;;;;;;5.10;4.80;;;;;;;30.89;65.96;100884.13;5068485;27;70420;-42
2021/09/02 02:05:27;;;;;;;4.47;4.05;;;;;;;30.84;66.23;100870.41;5069534;27;65308;-42
2021/09/02 02:07:59;;;;;;;4.60;4.30;;;;;;;30.95;65.85;100894.06;5073540;27;70378;-40
2021/09/02 02:10:31;;;;;;;4.85;4.18;;;;;;;31.03;65.61;100885.66;5067530;27;65819;-42
2021/09/02 02:13:03;;;;;;;4.68;4.38;;;;;;;31.05;65.99;100883.56;5063155;27;71153;-41
2021/09/02 02:15:34;;;;;;;4.90;4.60;;;;;;;30.86;66.23;100858.28;5053093;27;65493;-43
2021/09/02 02:18:05;;;;;;;4.53;4.22;;;;;;;31.11;66.07;100890.81;5067048;27;69877;-42
2021/09/02 02:20:36;;;;;;;4.45;4.13;;;;;;;31.11;65.79;100888.09;5061499;27;66614;-43
2021/09/02 02:23:07;;;;;;;3.70;3.50;;;;;;;31.05;65.75;100880.84;5068192;27;70754;-41
2021/09/02 02:25:39;;;;;;;3.95;3.67;;;;;;;31.09;65.83;100894.78;5048216;27;65605;-42
2021/09/02 02:28:10;;;;;;;3.80;3.55;;;;;;;31.10;66.22;100897.28;5070255;27;71333;-42
2021/09/02 02:30:41;;;;;;;3.42;3.22;;;;;;;31.07;65.80;100880.66;5073871;27;65934;-42
2021/09/02 02:33:12;;;;;;;4.40;3.87;;;;;;;31.14;66.23;100882.22;5071717;27;70508;-42
2021/09/02 02:35:43;;;;;;;3.17;2.97;;;;;;;31.14;66.08;100882.22;5069313;27;65187;-41
2021/09/02 02:38:14;;;;;;;3.00;2.78;;;;;;;31.23;65.88;100884.66;5073573;27;69784;-43
2021/09/02 02:40:45;;;;;;;3.38;2.83;;;;;;;31.21;65.93;100875.94;5078707;27;66496;-42
2021/09/02 02:43:16;;;;;;;6.03;4.10;;;;;;;31.27;66.97;100875.03;5075426;27;70235;-41
2021/09/02 02:45:46;;;;;;;17.67;6.53;;;;;;;31.31;66.16;100879.78;5071108;27;67361;-42
2021/09/02 02:48:17;;;;;;;10.27;4.80;;;;;;;31.35;66.18;100878.28;5069147;27;70286;-43
2021/09/02 02:50:49;;;;;;;15.05;5.25;;;;;;;31.39;65.96;100878.69;5053913;27;66237;-43
2021/09/02 02:53:20;;;;;;;10.25;4.50;;;;;;;31.44;66.15;100887.00;5071101;27;70300;-42
2021/09/02 02:55:51;;;;;;;5.63;4.30;;;;;;;31.43;65.92;100877.22;5073856;27;64749;-42
2021/09/02 02:58:23;;;;;;;4.63;4.33;;;;;;;31.40;65.45;100874.97;5075243;27;70188;-41
2021/09/02 03:00:54;;;;;;;3.63;3.33;;;;;;;31.43;65.70;100884.53;5074366;27;66167;-43
2021/09/02 03:03:25;;;;;;;3.57;3.27;;;;;;;31.45;65.51;100883.22;5078002;27;70186;-42
2021/09/02 03:05:56;;;;;;;3.38;2.63;;;;;;;31.40;65.41;100861.41;5076018;27;66058;-42
2021/09/02 03:08:27;;;;;;;3.80;2.90;;;;;;;31.43;64.97;100869.09;5075554;27;70333;-43
2021/09/02 03:10:57;;;;;;;5.10;3.75;;;;;;;31.41;65.68;100876.59;5076631;27;66554;-42
2021/09/02 03:13:28;;;;;;;8.43;3.58;;;;;;;31.41;65.71;100873.88;5071420;27;69464;-42
2021/09/02 03:15:59;;;;;;;4.25;2.70;;;;;;;31.39;65.61;100867.84;5100038;27;66605;-42
2021/09/02 03:18:30;;;;;;;3.80;2.90;;;;;;;31.41;65.42;100871.19;5067132;27;70640;-42
2021/09/02 03:21:01;;;;;;;3.03;2.72;;;;;;;31.35;65.44;100863.91;5066402;27;66851;-42
2021/09/02 03:23:32;;;;;;;3.30;2.85;;;;;;;31.42;66.32;100878.25;5073599;27;70831;-41
2021/09/02 03:26:03;;;;;;;2.85;2.65;;;;;;;31.41;66.68;100863.03;5075321;27;65661;-41
2021/09/02 03:28:33;;;;;;;2.88;2.67;;;;;;;31.22;66.60;100823.41;5069278;27;70681;-41
2021/09/02 03:31:04;;;;;;;2.65;2.45;;;;;;;31.48;66.17;100854.84;5067861;27;66664;-43
2021/09/02 03:33:35;;;;;;;3.10;2.90;;;;;;;31.51;66.56;100866.06;5073025;27;70311;-41
2021/09/02 03:36:06;;;;;;;3.00;2.80;;;;;;;31.51;65.93;100852.53;5080221;27;65874;-43
2021/09/02 03:38:37;;;;;;;2.40;2.30;;;;;;;31.57;65.23;100848.91;5073769;27;69393;-42
2021/09/02 03:41:08;;;;;;;3.10;2.90;;;;;;;31.47;66.07;100837.75;5070626;27;66883;-42
2021/09/02 03:43:38;;;;;;;2.53;2.38;;;;;;;31.59;66.24;100857.66;5071155;27;70465;-40
2021/09/02 03:46:09;;;;;;;4.53;2.25;;;;;;;31.61;66.23;100849.28;5075142;27;65128;-42
2021/09/02 03:48:40;;;;;;;2.92;2.50;;;;;;;31.61;64.66;100850.09;5078299;27;70257;-41
2021/09/02 03:51:11;;;;;;;4.30;2.13;;;;;;;31.42;65.01;100813.19;5077155;27;66583;-42
2021/09/02 03:53:41;;;;;;;2.70;2.50;;;;;;;31.71;66.11;100840.63;5077948;27;69308;-41
2021/09/02 03:56:12;;;;;;;2.33;2.13;;;;;;;31.70;65.06;100839.75;5074579;27;66471;-42
2021/09/02 03:58:43;;;;;;;2.40;2.20;;;;;;;31.70;64.67;100836.22;5079900;27;69668;-42
2021/09/02 04:01:14;;;;;;;3.55;2.90;;;;;;;31.76;65.53;100825.31;5073406;27;65454;-43
2021/09/02 04:03:45;;;;;;;4.20;3.70;;;;;;;31.75;65.96;100834.50;5078986;27;69500;-42
2021/09/02 04:06:16;;;;;;;5.05;4.53;;;;;;;31.81;66.38;100821.91;5074741;27;65940;-41
2021/09/02 04:08:47;;;;;;;5.82;4.72;;;;;;;31.84;66.66;100816.03;5080601;27;69915;-42
2021/09/02 04:11:18;;;;;;;5.80;4.45;;;;;;;31.87;66.60;100815.56;5080011;27;66608;-42
2021/09/02 04:13:49;;;;;;;4.28;3.88;;;;;;;31.89;66.43;100818.88;5084123;27;71386;-41
2021/09/02 04:16:20;;;;;;;4.20;3.90;;;;;;;31.91;65.38;100816.81;5093612;27;65672;-41
2021/09/02 04:18:50;;;;;;;7.72;4.60;;;;;;;31.92;65.66;100823.06;5068607;27;70382;-42
2021/09/02 04:21:21;;;;;;;7.25;4.10;;;;;;;31.91;65.81;100814.09;5064638;27;66476;-42
2021/09/02 04:23:52;;;;;;;5.50;3.40;;;;;;;31.92;66.27;100810.31;5078643;27;69747;-42
2021/09/02 04:26:23;;;;;;;3.90;3.58;;;;;;;31.92;65.53;100818.44;5071222;27;65909;-41
2021/09/02 04:28:54;;;;;;;6.90;3.67;;;;;;;31.91;65.97;100810.53;5073279;27;69332;-42
2021/09/02 04:31:25;;;;;;;4.05;2.85;;;;;;;31.93;65.08;100808.44;5067791;27;66237;-42
2021/09/02 04:33:56;;;;;;;3.10;2.80;;;;;;;31.89;64.00;100808.03;5068826;27;70034;-43
2021/09/02 04:36:26;;;;;;;3.13;2.35;;;;;;;31.82;63.53;100793.75;5075441;27;66264;-42
2021/09/02 04:38:57;;;;;;;2.58;2.38;;;;;;;31.87;62.82;100796.56;5070843;27;69990;-43
2021/09/02 04:41:28;;;;;;;6.30;2.22;;;;;;;31.91;63.40;100797.81;5074802;27;65979;-42
2021/09/02 04:43:59;;;;;;;2.72;2.25;;;;;;;31.90;63.24;100793.44;5069719;27;70210;-43
2021/09/02 04:46:30;;;;;;;3.30;2.37;;;;;;;31.94;63.13;100783.78;5070451;27;65692;-42
2021/09/02 04:49:01;;;;;;;2.38;2.17;;;;;;;31.92;63.20;100782.38;5050723;27;69941;-42
2021/09/02 04:51:32;;;;;;;2.38;2.20;;;;;;;31.94;62.28;100780.25;5066803;27;65363;-43
2021/09/02 04:54:03;;;;;;;3.70;2.55;;;;;;;31.93;62.14;100765.88;5070744;27;70917;-44
2021/09/02 04:56:34;;;;;;;2.15;1.95;;;;;;;31.81;61.30;100767.66;5072693;27;66732;-43
2021/09/02 04:59:04;;;;;;;3.15;2.00;;;;;;;31.76;59.96;100753.94;5065146;27;69282;-42
2021/09/02 05:01:35;;;;;;;3.10;1.88;;;;;;;31.67;58.10;100744.50;5074727;27;65532;-43
2021/09/02 05:04:06;;;;;;;1.93;1.80;;;;;;;31.55;57.54;100739.84;5070217;27;70097;-44
2021/09/02 05:06:37;;;;;;;2.07;1.90;;;;;;;31.46;56.70;100733.09;5053202;27;65350;-43
2021/09/02 05:09:08;;;;;;;2.30;2.10;;;;;;;31.40;55.95;100728.59;5060046;27;69775;-43
2021/09/02 05:11:39;;;;;;;1.77;1.67;;;;;;;31.36;55.13;100721.94;5065725;27;66428;-43
2021/09/02 05:14:10;;;;;;;3.90;1.58;;;;;;;31.26;53.77;100718.91;5064875;27;69935;-43
2021/09/02 05:16:41;;;;;;;1.92;1.50;;;;;;;31.20;53.10;100711.69;5077039;27;66080;-43
2021/09/02 05:19:12;;;;;;;1.80;1.70;;;;;;;31.20;52.50;100711.69;5079875;27;70008;-43
2021/09/02 05:21:42;;;;;;;2.08;1.88;;;;;;;31.13;53.30;100701.75;5085566;27;66121;-43
2021/09/02 05:24:13;;;;;;;1.70;1.60;;;;;;;31.08;52.04;100693.47;5073097;27;69864;-44
2021/09/02 05:26:44;;;;;;;3.00;2.10;;;;;;;31.03;52.50;100689.78;5077300;27;65876;-44
2021/09/02 05:29:15;;;;;;;1.90;1.80;;;;;;;31.02;51.55;100683.53;5071487;27;69084;-45
2021/09/02 05:31:48;;;;;;;2.67;2.05;;;;;;;30.97;51.11;100669.84;5071931;27;66154;-45
2021/09/02 05:34:18;;;;;;;2.72;2.25;;;;;;;30.86;51.27;100652.47;5068957;27;70604;-45
2021/09/02 05:36:49;;;;;;;4.63;2.30;;;;;;;30.64;50.92;100619.56;5070562;27;66335;-45
2021/09/02 05:39:20;;;;;;;2.10;1.45;;;;;;;30.82;50.55;100645.03;5074242;27;69638;-45
2021/09/02 05:41:52;;;;;;;1.77;1.63;;;;;;;30.82;49.98;100645.84;5075903;27;65616;-46
2021/09/02 05:44:22;;;;;;;1.73;1.63;;;;;;;30.80;50.25;100641.72;5064810;27;71213;-45
2021/09/02 05:46:55;;;;;;;2.10;1.70;;;;;;;30.76;48.59;100635.06;5076755;27;65703;-45
2021/09/02 05:49:26;;;;;;;2.13;1.90;;;;;;;30.73;48.36;100626.34;5069983;27;69843;-45
2021/09/02 05:51:57;;;;;;;2.50;1.90;;;;;;;30.70;48.20;100615.13;5071855;27;66214;-44
2021/09/02 05:54:30;;;;;;;4.00;1.60;;;;;;;30.69;47.91;100611.59;5075721;27;69582;-45
2021/09/02 05:57:01;;;;;;;1.73;1.63;;;;;;;30.71;48.25;100617.63;5066206;27;65502;-45
2021/09/02 05:59:32;;;;;;;2.63;1.77;;;;;;;30.74;47.83;100619.06;5071686;27;69074;-46
2021/09/02 06:02:03;;;;;;;2.40;2.00;;;;;;;30.73;47.61;100620.94;5074912;27;66661;-46
2021/09/02 06:04:35;;;;;;;1.90;1.63;;;;;;;30.72;47.47;100611.13;5049232;28;70262;-46
2021/09/02 06:07:09;;;;;;;1.80;1.70;;;;;;;30.68;47.11;100601.81;5072450;27;65937;-46
2021/09/02 06:10:01;;;;;;;3.45;2.38;;;;;;;30.66;46.49;100586.84;5068842;27;70455;-45
2021/09/02 06:12:32;;;;;;;5.85;1.60;;;;;;;30.68;46.27;100585.59;5086208;27;65935;-46
2021/09/02 06:15:07;;;;;;;2.57;2.00;;;;;;;30.66;45.88;100581.44;5071163;27;69885;-46
2021/09/02 06:17:38;;;;;;;4.28;2.17;;;;;;;30.64;46.07;100578.13;5073358;27;66208;-46
2021/09/02 06:20:10;;;;;;;3.03;2.10;;;;;;;30.63;45.84;100577.31;5075551;27;69615;-46
2021/09/02 06:22:41;;;;;;;3.50;2.22;;;;;;;30.53;45.63;100566.16;5074854;27;66370;-46
2021/09/02 06:25:12;;;;;;;3.40;1.92;;;;;;;30.61;44.95;100581.28;5076019;27;69604;-47
2021/09/02 06:27:43;;;;;;;2.97;2.20;;;;;;;30.59;44.98;100575.25;5085633;27;66397;-46
2021/09/02 06:30:13;;;;;;;2.22;2.03;;;;;;;30.56;44.95;100575.72;5082289;27;70285;-46
2021/09/02 06:32:44;;;;;;;1.90;1.80;;;;;;;30.53;44.94;100565.34;5067979;27;65616;-46
2021/09/02 06:35:15;;;;;;;4.65;2.20;;;;;;;30.55;44.83;100572.19;5076537;27;70275;-46
2021/09/02 06:37:46;;;;;;;1.90;1.80;;;;;;;30.54;44.56;100567.84;5083502;27;65445;-47
2021/09/02 06:40:17;;;;;;;1.92;1.83;;;;;;;30.51;44.53;100565.59;5076831;27;71073;-46
2021/09/02 06:42:48;;;;;;;4.05;2.40;;;;;;;30.53;44.65;100566.16;5069194;27;65553;-45
2021/09/02 06:45:18;;;;;;;2.42;2.22;;;;;;;30.56;45.71;100560.31;5071499;27;69873;-45
2021/09/02 06:47:49;;;;;;;2.85;2.25;;;;;;;30.58;46.13;100546.56;5074365;27;65606;-45
2021/09/02 06:50:21;;;;;;;2.20;2.00;;;;;;;30.58;46.53;100541.97;5087248;27;69149;-44
2021/09/02 06:52:52;;;;;;;5.78;2.03;;;;;;;30.59;46.11;100542.78;5068949;27;65742;-46
2021/09/02 06:55:22;;;;;;;2.63;2.42;;;;;;;30.56;45.40;100530.53;5075926;27;69156;-46
2021/09/02 06:57:53;;;;;;;6.78;1.90;;;;;;;30.60;45.05;100533.63;5074078;27;66928;-46
2021/09/02 07:00:24;;;;;;;2.60;2.40;;;;;;;30.57;44.56;100524.06;5067363;27;70003;-47
2021/09/02 07:02:55;;;;;;;3.95;2.42;;;;;;;30.59;44.07;100515.72;5072764;27;66720;-47
2021/09/02 07:05:26;;;;;;;2.63;2.42;;;;;;;30.58;44.24;100519.47;5082290;27;70355;-45
2021/09/02 07:07:57;;;;;;;2.67;2.17;;;;;;;30.60;43.88;100515.50;5073675;27;66771;-45
2021/09/02 07:10:37;;;;;;;2.22;2.03;;;;;;;30.59;43.53;100500.31;5066711;27;69925;-44
2021/09/02 07:13:08;;;;;;;3.78;2.30;;;;;;;30.58;43.75;100495.94;5074232;27;66567;-45
2021/09/02 07:15:39;;;;;;;3.35;2.20;;;;;;;30.58;43.52;100493.22;5069619;27;68725;-45
2021/09/02 07:18:19;;;;;;;2.40;2.20;;;;;;;30.63;42.90;100496.09;5074645;27;66291;-45
2021/09/02 07:20:57;;;;;;;2.33;2.17;;;;;;;30.67;42.60;100483.78;5069765;27;69423;-46
2021/09/02 07:23:28;;;;;;;2.65;2.20;;;;;;;30.71;43.74;100482.25;5079821;27;65906;-45
2021/09/02 07:25:59;;;;;;;10.50;2.65;;;;;;;30.72;43.90;100469.53;5076466;27;69528;-46
2021/09/02 07:28:29;;;;;;;2.45;2.25;;;;;;;30.77;43.74;100460.72;5084839;27;65936;-45
2021/09/02 07:31:03;;;;;;;2.00;1.90;;;;;;;30.76;43.15;100450.94;5074690;27;70088;-45
2021/09/02 07:33:34;;;;;;;2.60;2.40;;;;;;;30.85;43.34;100463.16;5080428;27;66453;-45
2021/09/02 07:36:05;;;;;;;2.50;2.30;;;;;;;30.86;43.40;100451.25;5075589;27;70081;-45
2021/09/02 07:38:39;;;;;;;2.45;1.90;;;;;;;30.85;43.39;100439.59;5074049;27;65823;-44
2021/09/02 07:41:10;;;;;;;2.33;2.20;;;;;;;30.78;42.40;100422.56;5078123;27;69579;-47
2021/09/02 07:43:42;;;;;;;2.78;2.58;;;;;;;30.87;42.43;100428.50;5065903;28;65745;-46
2021/09/02 07:46:15;;;;;;;2.65;2.45;;;;;;;30.85;42.57;100427.94;5070937;27;70451;-44
2021/09/02 07:48:47;;;;;;;3.13;2.33;;;;;;;30.91;43.32;100433.25;5071458;27;66963;-45
2021/09/02 07:51:19;;;;;;;21.38;3.13;;;;;;;30.96;44.17;100419.03;5063537;27;68619;-44
2021/09/02 07:53:50;;;;;;;4.63;2.25;;;;;;;31.11;49.66;100434.81;5065434;27;66560;-44
2021/09/02 07:56:21;;;;;;;3.55;3.05;;;;;;;31.28;53.37;100437.69;5070236;27;70177;-44
2021/09/02 07:59:09;;;;;;;3.15;2.95;;;;;;;31.40;55.95;100441.28;5068841;27;66754;-47
2021/09/02 08:01:58;;;;;;;3.33;3.13;;;;;;;31.56;56.86;100432.41;5072642;27;70772;-44
2021/09/02 08:04:32;;;;;;;4.43;4.13;;;;;;;31.72;58.62;100439.03;5075568;27;66603;-44
2021/09/02 08:07:03;;;;;;;4.35;4.05;;;;;;;31.82;58.53;100423.00;5069538;27;70370;-45
2021/09/02 08:09:51;;;;;;;6.45;3.58;;;;;;;31.95;59.09;100421.09;5077763;27;66466;-45
2021/09/02 08:12:31;;;;;;;4.10;3.80;;;;;;;32.00;60.15;100403.03;5067821;27;70369;-44
2021/09/02 08:15:02;;;;;;;4.10;3.80;;;;;;;32.13;59.24;100396.53;5078107;27;66092;-44
2021/09/02 08:17:33;;;;;;;4.50;4.20;;;;;;;32.22;59.70;100411.38;5072987;27;70374;-44
2021/09/02 08:20:05;;;;;;;3.88;3.65;;;;;;;32.30;59.89;100393.06;5073883;27;65661;-43
2021/09/02 08:22:36;;;;;;;5.00;4.07;;;;;;;32.37;59.65;100397.25;5067013;27;70364;-44
2021/09/02 08:25:09;;;;;;;4.53;4.13;;;;;;;31.95;60.40;100324.25;5067113;27;66250;-43
2021/09/02 08:27:42;;;;;;;4.15;3.95;;;;;;;32.49;60.82;100411.66;5068362;27;70213;-43
2021/09/02 08:30:15;;;;;;;4.55;4.15;;;;;;;32.52;61.68;100404.09;5070268;27;65640;-43
2021/09/02 08:32:48;;;;;;;4.60;4.30;;;;;;;32.59;61.46;100410.19;5074887;27;70297;-43
2021/09/02 08:35:28;;;;;;;6.80;5.28;;;;;;;32.62;61.04;100409.69;5066801;27;66551;-44
2021/09/02 08:38:03;;;;;;;4.80;4.32;;;;;;;32.61;61.25;100397.19;5067391;27;70143;-44
2021/09/02 08:40:44;;;;;;;5.18;4.57;;;;;;;32.65;61.04;100399.19;5071623;27;67579;-43
2021/09/02 08:43:17;;;;;;;5.20;4.22;;;;;;;32.70;61.10;100393.00;5070309;27;70036;-44
2021/09/02 08:46:08;;;;;;;5.70;5.20;;;;;;;32.72;61.65;100401.75;5073847;27;65851;-42
2021/09/02 08:48:48;;;;;;;4.80;4.50;;;;;;;32.73;61.38;100416.97;5070273;27;70556;-43
2021/09/02 08:51:19;;;;;;;5.03;4.63;;;;;;;32.74;61.67;100434.94;5071078;27;65553;-42
2021/09/02 08:53:53;;;;;;;6.00;4.68;;;;;;;32.58;62.08;100394.97;5077380;27;70032;-42
2021/09/02 08:56:24;;;;;;;13.05;5.63;;;;;;;32.86;61.50;100421.28;5071627;27;65960;-42
2021/09/02 08:58:55;;;;;;;4.80;4.43;;;;;;;32.86;61.27;100430.25;5073271;27;70048;-41
2021/09/02 09:01:26;;;;;;;5.70;4.65;;;;;;;32.89;60.34;100427.03;5069897;27;65755;-42
2021/09/02 09:03:57;;;;;;;4.93;4.63;;;;;;;32.82;59.64;100430.97;5072311;27;69442;-42
2021/09/02 09:06:30;;;;;;;4.93;4.45;;;;;;;32.86;59.87;100432.97;5069232;27;65154;-43
2021/09/02 09:09:01;;;;;;;;;;;;;;;32.58;60.66;100436.53;5076734;27;70899;-42
2021/09/02 09:11:31;;;;;;;6.55;3.70;;;;;;;32.85;60.25;100446.81;5077145;27;65261;-42
2021/09/02 09:14:10;;;;;;;3.78;3.28;;;;;;;32.80;60.33;100444.81;5065123;27;69624;-42
2021/09/02 09:16:56;;;;;;;4.75;3.92;;;;;;;32.78;60.82;100457.00;5064131;27;66162;-42
2021/09/02 09:19:52;;;;;;;4.65;4.35;;;;;;;32.76;61.09;100459.13;5066725;27;69072;-42
2021/09/02 09:22:29;;;;;;;4.75;4.20;;;;;;;32.88;61.06;100468.06;5074282;27;66723;-42
2021/09/02 09:25:08;;;;;;;5.95;4.53;;;;;;;32.88;60.86;100474.31;5064087;27;69953;-42
2021/09/02 09:27:48;;;;;;;4.55;4.18;;;;;;;32.98;60.72;100478.25;5092012;27;66348;-41
2021/09/02 09:30:30;;;;;;;7.25;4.20;;;;;;;32.98;61.48;100478.25;5074353;27;70634;-42
2021/09/02 09:33:03;;;;;;;7.18;4.18;;;;;;;32.78;61.15;100438.78;5074572;27;66596;-42
2021/09/02 09:35:36;;;;;;;16.40;4.00;;;;;;;33.07;60.94;100490.41;5067100;27;70627;-42
2021/09/02 09:38:11;;;;;;;4.13;3.70;;;;;;;33.06;60.93;100494.19;5084587;27;66472;-42
2021/09/02 09:40:50;;;;;;;14.75;4.65;;;;;;;33.07;60.81;100487.69;5084846;27;69579;-41
2021/09/02 09:43:25;;;;;;;10.35;6.63;;;;;;;33.09;61.63;100486.38;5081986;27;65596;-42
2021/09/02 09:45:57;;;;;;;8.60;6.55;;;;;;;32.80;61.84;100442.09;5064962;27;70135;-43
2021/09/02 09:48:35;;;;;;;6.55;5.95;;;;;;;32.98;62.15;100472.81;5075674;27;66823;-42
2021/09/02 09:51:09;;;;;;;6.35;5.72;;;;;;;32.93;62.25;100484.41;5059692;28;70103;-43
2021/09/02 09:53:50;;;;;;;6.35;5.75;;;;;;;32.86;62.20;100495.44;5077794;27;64852;-41
2021/09/02 09:56:24;;;;;;;4.78;4.38;;;;;;;32.78;62.42;100514.03;5078009;27;70025;-42
2021/09/02 09:58:56;;;;;;;4.88;4.47;;;;;;;32.75;62.34;100518.06;5074925;27;66179;-42
2021/09/02 10:01:27;;;;;;;4.93;4.53;;;;;;;32.72;62.67;100518.53;5071943;27;69640;-42
2021/09/02 10:04:00;;;;;;;4.90;4.00;;;;;;;32.51;62.28;100494.75;5071467;27;66145;-42
2021/09/02 10:06:33;;;;;;;4.15;3.85;;;;;;;32.64;62.30;100527.06;5075627;27;69221;-42
2021/09/02 10:09:03;;;;;;;4.20;3.80;;;;;;;32.61;62.00;100532.97;5071926;27;65380;-42
2021/09/02 10:11:34;;;;;;;4.13;3.83;;;;;;;32.61;61.31;100527.53;5072126;27;69467;-42
2021/09/02 10:14:05;;;;;;;3.60;3.20;;;;;;;32.54;60.98;100524.97;5072598;27;66567;-42
2021/09/02 10:16:36;;;;;;;3.63;3.33;;;;;;;32.50;59.52;100526.50;5068080;27;70498;-43
2021/09/02 10:19:08;;;;;;;;;;;;;;;32.16;60.45;100531.72;5059773;27;66603;-43
2021/09/02 10:21:39;;;;;;;4.43;3.15;;;;;;;32.36;59.92;100530.53;5068752;27;70704;-42
2021/09/02 10:24:39;;;;;;;4.47;4.17;;;;;;;32.34;60.28;100517.19;5055797;27;65771;-43
2021/09/02 10:27:22;;;;;;;4.28;3.97;;;;;;;32.36;60.47;100520.50;5057834;27;70256;-43
2021/09/02 10:29:54;;;;;;;4.90;4.50;;;;;;;32.41;60.37;100523.31;5068151;27;67580;-43
2021/09/02 10:32:28;;;;;;;6.13;4.03;;;;;;;32.39;60.27;100533.56;5063434;27;70108;-43
2021/09/02 10:35:12;;;;;;;4.10;3.70;;;;;;;32.33;59.64;100526.41;5066587;27;66417;-43
2021/09/02 10:37:43;;;;;;;3.50;3.20;;;;;;;32.34;59.02;100528.03;5067203;27;70596;-43
2021/09/02 10:40:17;;;;;;;3.95;3.67;;;;;;;32.31;59.57;100516.84;5069250;27;66426;-43
2021/09/02 10:42:49;;;;;;;5.20;3.78;;;;;;;32.32;59.98;100522.03;5067525;27;69896;-43
2021/09/02 10:45:29;;;;;;;3.65;3.45;;;;;;;32.29;60.69;100522.53;5070386;27;66279;-43
2021/09/02 10:48:00;;;;;;;3.20;3.00;;;;;;;32.25;60.38;100529.47;5067592;27;70354;-42
2021/09/02 10:50:37;;;;;;;3.45;3.20;;;;;;;32.28;60.43;100529.81;5068480;27;66720;-44
2021/09/02 10:53:09;;;;;;;4.10;3.80;;;;;;;32.29;60.50;100541.53;5071287;27;69769;-44
2021/09/02 10:55:48;;;;;;;5.03;4.22;;;;;;;32.29;60.45;100546.94;5060091;27;66858;-43
2021/09/02 10:58:40;;;;;;;4.80;4.38;;;;;;;32.21;60.54;100566.31;5055079;27;70129;-43
2021/09/02 11:01:40;;;;;;;4.78;4.47;;;;;;;32.10;60.50;100559.81;5046616;27;66696;-45
2021/09/02 11:04:14;;;;;;;4.32;4.03;;;;;;;32.28;60.71;100564.28;5069038;27;69867;-44
2021/09/02 11:06:49;;;;;;;4.57;4.18;;;;;;;32.25;60.55;100562.03;5073154;27;66109;-43
2021/09/02 11:09:37;;;;;;;6.75;4.32;;;;;;;32.21;60.55;100579.88;5075060;27;70230;-43
2021/09/02 11:12:11;;;;;;;3.75;3.45;;;;;;;32.02;60.86;100542.00;5084740;27;66245;-43
2021/09/02 11:14:46;;;;;;;3.90;3.60;;;;;;;32.31;61.17;100587.41;5076700;27;68151;-42
2021/09/02 11:17:17;;;;;;;4.13;3.83;;;;;;;32.28;61.03;100577.84;5071179;27;66230;-42
2021/09/02 11:19:49;;;;;;;6.22;3.97;;;;;;;32.29;62.77;100584.94;5066593;27;70101;-43
2021/09/02 11:22:20;;;;;;;5.35;4.00;;;;;;;32.26;63.05;100579.97;5070711;27;64981;-41
2021/09/02 11:24:54;;;;;;;5.63;3.70;;;;;;;32.21;63.66;100588.84;5069531;27;70396;-45
2021/09/02 11:27:34;;;;;;;3.70;3.33;;;;;;;32.23;63.36;100591.31;5083253;27;66665;-42
2021/09/02 11:30:19;;;;;;;5.63;3.88;;;;;;;32.18;61.83;100593.88;5067753;27;70133;-43
2021/09/02 11:33:06;;;;;;;3.65;3.25;;;;;;;32.11;60.42;100596.72;5072084;27;66239;-44
2021/09/02 11:35:37;;;;;;;3.85;3.53;;;;;;;32.12;59.45;100621.97;5058913;27;70037;-42
2021/09/02 11:38:10;;;;;;;4.97;2.40;;;;;;;31.98;58.28;100616.78;5071265;27;65906;-42
2021/09/02 11:40:41;;;;;;;6.25;3.33;;;;;;;31.98;56.81;100629.50;5063882;27;69671;-42
2021/09/02 11:43:17;;;;;;;4.35;3.03;;;;;;;31.78;56.02;100621.66;5061955;27;66520;-43
2021/09/02 11:45:55;;;;;;;2.75;2.55;;;;;;;31.85;55.32;100649.53;5065657;27;70616;-42
2021/09/02 11:48:26;;;;;;;5.47;2.95;;;;;;;31.78;56.57;100649.59;5067154;27;66464;-43
2021/09/02 11:51:00;;;;;;;3.22;2.92;;;;;;;31.69;56.19;100642.88;5062432;27;70352;-42